Time;durP1;ratioP1;P1;durP2;ratioP2;P2;SDS_P1;SDS_P2;PMS_P1;PMS_P2;Temp;Humidity;BMP_temperature;BMP_pressure;BME280_temperature;BME280_humidity;BME280_pressure;Samples;Min_cycle;Max_cycle;Signal;HPM_P1;HPM_P2
2021/08/16 00:01:12;;;;;;;12.55;6.32;;;;;;;;;;5014346;28;20030;-56
2021/08/16 00:03:38;;;;;;;20.65;6.45;;;;;;;;;;5014626;28;20069;-56
2021/08/16 00:06:04;;;;;;;6.53;4.88;;;;;;;;;;5014219;28;20022;-56
2021/08/16 00:08:30;;;;;;;13.00;6.03;;;;;;;;;;5014972;28;20041;-56
2021/08/16 00:10:56;;;;;;;13.30;7.00;;;;;;;;;;5013561;28;20022;-56
2021/08/16 00:13:24;;;;;;;14.15;6.20;;;;;;;;;;5015090;28;20052;-56
2021/08/16 00:15:52;;;;;;;11.40;6.03;;;;;;;;;;5014740;28;20025;-56
2021/08/16 00:18:17;;;;;;;8.57;4.97;;;;;;;;;;5014347;28;20372;-57
2021/08/16 00:20:43;;;;;;;12.82;5.95;;;;;;;;;;5014094;28;20020;-57
2021/08/16 00:23:09;;;;;;;14.93;5.60;;;;;;;;;;5014725;28;20091;-56
2021/08/16 00:25:35;;;;;;;7.57;4.60;;;;;;;;;;5014866;28;20045;-56
2021/08/16 00:28:01;;;;;;;9.10;5.90;;;;;;;;;;5014444;28;20038;-56
2021/08/16 00:30:27;;;;;;;12.00;5.15;;;;;;;;;;5013846;28;20451;-57
2021/08/16 00:32:53;;;;;;;9.98;5.55;;;;;;;;;;5014305;28;20131;-57
2021/08/16 00:35:19;;;;;;;8.50;5.80;;;;;;;;;;5014261;28;20428;-56
2021/08/16 00:37:46;;;;;;;11.68;5.78;;;;;;;;;;5014337;28;20029;-56
2021/08/16 00:40:13;;;;;;;21.13;5.82;;;;;;;;;;5013477;28;20045;-56
2021/08/16 00:42:39;;;;;;;15.85;6.22;;;;;;;;;;5014193;28;20038;-56
2021/08/16 00:45:07;;;;;;;15.18;6.70;;;;;;;;;;5014485;28;20065;-56
2021/08/16 00:47:33;;;;;;;13.52;6.28;;;;;;;;;;5013171;28;20379;-56
2021/08/16 00:49:59;;;;;;;11.32;5.57;;;;;;;;;;5021516;28;20422;-56
2021/08/16 00:52:26;;;;;;;10.35;5.38;;;;;;;;;;5030832;28;20124;-56
2021/08/16 00:54:53;;;;;;;12.77;5.85;;;;;;;;;;5032679;28;20049;-56
2021/08/16 00:57:19;;;;;;;12.80;5.82;;;;;;;;;;5014231;28;20034;-56
2021/08/16 00:59:45;;;;;;;12.68;6.65;;;;;;;;;;5013605;28;20480;-56
2021/08/16 01:02:11;;;;;;;9.85;6.25;;;;;;;;;;5013304;28;20060;-56
2021/08/16 01:04:38;;;;;;;12.85;5.97;;;;;;;;;;5028832;28;20117;-56
2021/08/16 01:07:04;;;;;;;11.60;5.80;;;;;;;;;;5014024;28;20021;-56
2021/08/16 01:09:30;;;;;;;14.73;6.38;;;;;;;;;;5013553;28;20076;-57
2021/08/16 01:11:56;;;;;;;15.57;6.60;;;;;;;;;;5028387;28;20080;-57
2021/08/16 01:14:22;;;;;;;20.98;6.95;;;;;;;;;;5013501;28;20034;-56
2021/08/16 01:16:48;;;;;;;13.27;6.10;;;;;;;;;;5013967;28;20049;-56
2021/08/16 01:19:16;;;;;;;12.93;7.15;;;;;;;;;;5013336;28;20065;-56
2021/08/16 01:21:42;;;;;;;9.82;5.85;;;;;;;;;;5013125;28;20037;-56
2021/08/16 01:24:08;;;;;;;12.82;5.90;;;;;;;;;;5013527;28;20038;-56
2021/08/16 01:26:34;;;;;;;19.08;5.55;;;;;;;;;;5013678;28;20026;-56
2021/08/16 01:29:01;;;;;;;10.93;6.18;;;;;;;;;;5013678;28;20140;-56
2021/08/16 01:31:27;;;;;;;10.38;5.68;;;;;;;;;;5013074;28;20025;-56
2021/08/16 01:33:53;;;;;;;11.20;5.43;;;;;;;;;;5013458;28;20367;-57
2021/08/16 01:36:19;;;;;;;11.30;6.38;;;;;;;;;;5027468;28;20032;-56
2021/08/16 01:38:45;;;;;;;13.38;5.80;;;;;;;;;;5033118;28;20701;-57
2021/08/16 01:41:11;;;;;;;16.90;6.07;;;;;;;;;;5031982;28;20021;-56
2021/08/16 01:43:37;;;;;;;13.07;5.85;;;;;;;;;;5032750;28;20048;-56
2021/08/16 01:46:04;;;;;;;14.85;6.35;;;;;;;;;;5032978;28;20163;-56
2021/08/16 01:48:30;;;;;;;15.27;7.13;;;;;;;;;;5032968;28;20512;-56
2021/08/16 01:50:56;;;;;;;12.40;6.18;;;;;;;;;;5032214;28;20313;-56
2021/08/16 01:53:22;;;;;;;16.23;7.07;;;;;;;;;;5032553;28;20064;-57
2021/08/16 01:55:48;;;;;;;9.85;6.10;;;;;;;;;;5032815;28;20059;-57
2021/08/16 01:58:14;;;;;;;14.88;6.85;;;;;;;;;;5033001;28;20028;-56
2021/08/16 02:00:40;;;;;;;19.45;7.10;;;;;;;;;;5031991;28;20025;-56
2021/08/16 02:03:07;;;;;;;13.68;6.20;;;;;;;;;;5032879;28;20151;-56
2021/08/16 02:05:33;;;;;;;12.48;6.38;;;;;;;;;;5032679;28;20420;-56
2021/08/16 02:07:59;;;;;;;15.40;6.45;;;;;;;;;;5032424;28;20044;-57
2021/08/16 02:10:25;;;;;;;10.57;6.07;;;;;;;;;;5032280;28;20045;-56
2021/08/16 02:12:51;;;;;;;14.63;6.65;;;;;;;;;;5032663;28;20359;-57
2021/08/16 02:15:17;;;;;;;12.55;6.53;;;;;;;;;;5032865;28;20037;-56
2021/08/16 02:17:43;;;;;;;12.07;6.55;;;;;;;;;;5031373;28;20024;-57
2021/08/16 02:20:09;;;;;;;17.40;7.13;;;;;;;;;;5032430;28;20032;-56
2021/08/16 02:22:35;;;;;;;11.50;6.65;;;;;;;;;;5032113;28;20033;-57
2021/08/16 02:25:02;;;;;;;15.13;6.22;;;;;;;;;;5032500;28;20033;-57
2021/08/16 02:27:29;;;;;;;15.15;6.10;;;;;;;;;;5032731;28;20026;-56
2021/08/16 02:29:55;;;;;;;11.20;6.85;;;;;;;;;;5031553;28;20025;-56
2021/08/16 02:32:21;;;;;;;16.63;6.82;;;;;;;;;;5035040;28;20060;-56
2021/08/16 02:34:47;;;;;;;13.18;6.00;;;;;;;;;;5036624;28;20513;-56
2021/08/16 02:37:13;;;;;;;17.10;6.03;;;;;;;;;;5035921;28;20061;-56
2021/08/16 02:39:39;;;;;;;17.48;7.22;;;;;;;;;;5036290;28;20026;-57
2021/08/16 02:42:05;;;;;;;11.50;6.10;;;;;;;;;;5035932;28;20108;-56
2021/08/16 02:44:31;;;;;;;15.77;5.78;;;;;;;;;;5036613;28;20047;-56
2021/08/16 02:46:59;;;;;;;14.13;6.05;;;;;;;;;;5036376;28;20127;-56
2021/08/16 02:49:25;;;;;;;11.55;5.30;;;;;;;;;;5034432;28;20180;-56
2021/08/16 02:51:51;;;;;;;9.63;4.82;;;;;;;;;;5035725;28;20026;-56
2021/08/16 02:54:17;;;;;;;10.48;5.63;;;;;;;;;;5036632;28;20163;-56
2021/08/16 02:56:43;;;;;;;9.10;5.57;;;;;;;;;;5036311;28;20048;-56
2021/08/16 02:59:09;;;;;;;11.52;6.15;;;;;;;;;;5035254;28;20021;-56
2021/08/16 03:01:35;;;;;;;9.23;4.82;;;;;;;;;;5035874;28;20464;-56
2021/08/16 03:04:01;;;;;;;8.00;5.05;;;;;;;;;;5035924;28;20085;-57
2021/08/16 03:06:28;;;;;;;13.60;5.53;;;;;;;;;;5035801;28;20018;-56
2021/08/16 03:08:56;;;;;;;9.73;6.05;;;;;;;;;;5034173;28;20036;-56
2021/08/16 03:11:22;;;;;;;8.38;4.80;;;;;;;;;;5035453;28;20025;-56
2021/08/16 03:13:48;;;;;;;13.93;4.40;;;;;;;;;;5035609;28;20425;-56
2021/08/16 03:16:14;;;;;;;9.85;4.63;;;;;;;;;;5034183;28;20017;-57
2021/08/16 03:18:40;;;;;;;9.07;4.68;;;;;;;;;;5035267;28;20367;-56
2021/08/16 03:21:06;;;;;;;8.00;3.80;;;;;;;;;;5034805;28;20108;-56
2021/08/16 03:23:32;;;;;;;7.78;3.88;;;;;;;;;;5035645;28;20028;-56
2021/08/16 03:25:58;;;;;;;10.95;4.40;;;;;;;;;;5035264;28;20026;-56
2021/08/16 03:28:26;;;;;;;5.22;3.58;;;;;;;;;;5034937;28;20037;-56
2021/08/16 03:30:52;;;;;;;9.40;4.55;;;;;;;;;;5033545;28;20032;-56
2021/08/16 03:33:18;;;;;;;9.35;3.90;;;;;;;;;;5035483;28;20028;-56
2021/08/16 03:35:44;;;;;;;9.02;3.65;;;;;;;;;;5033959;28;20021;-56
2021/08/16 03:38:10;;;;;;;7.03;3.70;;;;;;;;;;5034961;28;20024;-57
2021/08/16 03:40:36;;;;;;;6.53;3.80;;;;;;;;;;5032086;28;20418;-56
2021/08/16 03:43:02;;;;;;;7.13;3.88;;;;;;;;;;5034889;28;20525;-56
2021/08/16 03:45:28;;;;;;;7.78;4.45;;;;;;;;;;5035667;28;20044;-56
2021/08/16 03:47:54;;;;;;;7.18;3.50;;;;;;;;;;5035036;28;20351;-56
2021/08/16 03:50:20;;;;;;;6.15;3.90;;;;;;;;;;5034553;28;20033;-56
2021/08/16 03:52:46;;;;;;;10.80;3.65;;;;;;;;;;5034520;28;20026;-56
2021/08/16 03:55:12;;;;;;;9.80;4.05;;;;;;;;;;5035030;28;20033;-56
2021/08/16 03:57:38;;;;;;;8.00;3.22;;;;;;;;;;5034398;28;20029;-56
2021/08/16 04:00:09;;;;;;;6.20;3.90;;;;;;;;;;5034637;28;20017;-56
2021/08/16 04:02:39;;;;;;;9.60;5.60;;;;;;;;;;5034683;28;20029;-56
2021/08/16 04:05:06;;;;;;;8.18;3.92;;;;;;;;;;5034595;28;20021;-56
2021/08/16 04:07:32;;;;;;;6.07;3.25;;;;;;;;;;5034659;28;20026;-56
2021/08/16 04:09:58;;;;;;;5.68;3.25;;;;;;;;;;5033164;28;20036;-56
2021/08/16 04:12:24;;;;;;;6.53;3.30;;;;;;;;;;5034194;28;20367;-56
2021/08/16 04:14:50;;;;;;;13.43;3.67;;;;;;;;;;5033116;28;20033;-56
2021/08/16 04:17:16;;;;;;;6.60;3.47;;;;;;;;;;5034982;28;20387;-57
2021/08/16 04:19:42;;;;;;;18.13;3.97;;;;;;;;;;5034388;28;20176;-56
2021/08/16 04:22:08;;;;;;;5.20;3.60;;;;;;;;;;5034018;28;20107;-56
2021/08/16 04:24:34;;;;;;;8.90;3.50;;;;;;;;;;5034151;28;20037;-56
2021/08/16 04:27:00;;;;;;;8.20;3.60;;;;;;;;;;5033446;28;20462;-57
2021/08/16 04:29:26;;;;;;;4.13;3.17;;;;;;;;;;5033894;28;20453;-56
2021/08/16 04:31:52;;;;;;;9.88;3.42;;;;;;;;;;5033393;28;20029;-56
2021/08/16 04:34:18;;;;;;;10.73;3.72;;;;;;;;;;5034006;28;20032;-56
2021/08/16 04:36:44;;;;;;;6.82;3.33;;;;;;;;;;5033898;28;20453;-56
2021/08/16 04:39:10;;;;;;;5.85;2.92;;;;;;;;;;5033489;28;20036;-56
2021/08/16 04:41:36;;;;;;;3.53;3.03;;;;;;;;;;5033630;28;20029;-56
2021/08/16 04:44:02;;;;;;;6.80;3.55;;;;;;;;;;5034071;28;20030;-56
2021/08/16 04:46:28;;;;;;;8.25;3.28;;;;;;;;;;5032724;28;20021;-56
2021/08/16 04:48:54;;;;;;;6.20;3.25;;;;;;;;;;5033764;28;20091;-57
2021/08/16 04:51:20;;;;;;;7.35;3.80;;;;;;;;;;5032764;28;20340;-56
2021/08/16 04:53:46;;;;;;;5.00;3.60;;;;;;;;;;5033410;28;20034;-56
2021/08/16 04:56:12;;;;;;;11.27;3.85;;;;;;;;;;5033929;28;20028;-56
2021/08/16 04:58:38;;;;;;;6.57;3.95;;;;;;;;;;5033547;28;20089;-56
2021/08/16 05:01:04;;;;;;;7.70;3.88;;;;;;;;;;5033119;28;20359;-56
2021/08/16 05:03:30;;;;;;;5.45;3.75;;;;;;;;;;5033726;28;20466;-56
2021/08/16 05:06:04;;;;;;;7.43;3.60;;;;;;;;;;5032288;28;20018;-56
2021/08/16 05:08:30;;;;;;;6.50;3.90;;;;;;;;;;5033809;28;20034;-56
2021/08/16 05:10:56;;;;;;;8.85;3.63;;;;;;;;;;5032636;28;20028;-56
2021/08/16 05:13:22;;;;;;;7.28;3.88;;;;;;;;;;5033628;28;20113;-56
2021/08/16 05:15:48;;;;;;;7.35;4.00;;;;;;;;;;5033431;28;20367;-56
2021/08/16 05:18:14;;;;;;;5.80;3.67;;;;;;;;;;5033521;28;20025;-56
2021/08/16 05:20:40;;;;;;;8.98;4.15;;;;;;;;;;5032542;28;20029;-56
2021/08/16 05:23:06;;;;;;;5.78;3.47;;;;;;;;;;5032739;28;20041;-56
2021/08/16 05:25:33;;;;;;;5.78;3.92;;;;;;;;;;5032724;28;20038;-56
2021/08/16 05:27:59;;;;;;;6.05;3.42;;;;;;;;;;5033292;28;20022;-53
2021/08/16 05:30:26;;;;;;;12.05;3.95;;;;;;;;;;5032251;28;20096;-52
2021/08/16 05:32:52;;;;;;;7.47;4.05;;;;;;;;;;5032041;28;20053;-52
2021/08/16 05:35:18;;;;;;;5.75;3.75;;;;;;;;;;5025752;28;20029;-53
2021/08/16 05:37:44;;;;;;;5.53;3.67;;;;;;;;;;5012546;28;20038;-53
2021/08/16 05:40:10;;;;;;;6.93;3.80;;;;;;;;;;5012124;28;20089;-53
2021/08/16 05:42:36;;;;;;;12.68;3.78;;;;;;;;;;5012039;28;20423;-53
2021/08/16 05:45:03;;;;;;;9.88;3.65;;;;;;;;;;5013054;28;20014;-53
2021/08/16 05:47:30;;;;;;;6.70;4.10;;;;;;;;;;5014093;28;20058;-52
2021/08/16 05:49:56;;;;;;;8.95;4.65;;;;;;;;;;5032238;28;20053;-52
2021/08/16 05:52:22;;;;;;;10.07;4.15;;;;;;;;;;5032709;28;20025;-53
2021/08/16 05:54:48;;;;;;;7.90;4.38;;;;;;;;;;5032964;28;20387;-52
2021/08/16 05:57:14;;;;;;;9.13;4.03;;;;;;;;;;5031441;28;20017;-53
2021/08/16 05:59:39;;;;;;;9.88;4.00;;;;;;;;;;5032426;28;20025;-52
2021/08/16 06:02:05;;;;;;;7.20;4.05;;;;;;;;;;5032166;28;20040;-52
2021/08/16 06:04:32;;;;;;;6.65;3.38;;;;;;;;;;5032237;28;20024;-52
2021/08/16 06:06:58;;;;;;;9.98;4.80;;;;;;;;;;5033024;28;20029;-52
2021/08/16 06:09:24;;;;;;;9.82;3.92;;;;;;;;;;5032182;28;20348;-52
2021/08/16 06:11:50;;;;;;;8.90;4.50;;;;;;;;;;5032357;28;20029;-52
2021/08/16 06:14:16;;;;;;;11.50;4.85;;;;;;;;;;5032783;28;20116;-52
2021/08/16 06:16:42;;;;;;;7.05;4.25;;;;;;;;;;5032775;28;20021;-52
2021/08/16 06:19:08;;;;;;;7.90;4.50;;;;;;;;;;5031825;28;20371;-52
2021/08/16 06:21:39;;;;;;;7.50;4.57;;;;;;;;;;5032572;28;20028;-52
2021/08/16 06:24:05;;;;;;;7.90;4.45;;;;;;;;;;5032532;28;20050;-53
2021/08/16 06:26:32;;;;;;;9.48;4.70;;;;;;;;;;5032601;28;20354;-52
2021/08/16 06:28:58;;;;;;;9.18;4.00;;;;;;;;;;5032406;28;20083;-52
2021/08/16 06:31:24;;;;;;;6.40;4.68;;;;;;;;;;5031725;28;20056;-53
2021/08/16 06:33:50;;;;;;;8.85;4.35;;;;;;;;;;5032140;28;20049;-52
2021/08/16 06:36:18;;;;;;;11.82;4.95;;;;;;;;;;5018829;28;20021;-53
2021/08/16 06:38:46;;;;;;;16.33;5.20;;;;;;;;;;5012729;28;20091;-51
2021/08/16 06:41:13;;;;;;;10.65;4.53;;;;;;;;;;5011696;28;20364;-52
2021/08/16 06:43:39;;;;;;;8.90;4.80;;;;;;;;;;5011045;28;20428;-52
2021/08/16 06:46:05;;;;;;;18.83;5.43;;;;;;;;;;5011658;28;20160;-52
2021/08/16 06:48:31;;;;;;;9.43;4.60;;;;;;;;;;5012862;28;20082;-52
2021/08/16 06:50:57;;;;;;;9.70;4.80;;;;;;;;;;5016135;28;20115;-52
2021/08/16 06:53:23;;;;;;;11.60;4.75;;;;;;;;;;5026882;28;20151;-52
2021/08/16 06:55:50;;;;;;;14.32;4.20;;;;;;;;;;5029881;28;20030;-52
2021/08/16 06:58:16;;;;;;;9.63;3.92;;;;;;;;;;5012647;28;20026;-52
2021/08/16 07:00:43;;;;;;;6.68;3.53;;;;;;;;;;5011565;28;20037;-52
2021/08/16 07:03:10;;;;;;;9.90;4.03;;;;;;;;;;5012467;28;20367;-52
2021/08/16 07:05:37;;;;;;;9.65;4.28;;;;;;;;;;5012747;28;20018;-52
2021/08/16 07:08:03;;;;;;;10.32;4.72;;;;;;;;;;5013081;28;20056;-52
2021/08/16 07:10:30;;;;;;;12.15;4.47;;;;;;;;;;5011880;28;20026;-52
2021/08/16 07:12:56;;;;;;;9.77;4.30;;;;;;;;;;5012614;28;20080;-52
2021/08/16 07:15:22;;;;;;;13.75;5.15;;;;;;;;;;5015087;28;20116;-52
2021/08/16 07:17:48;;;;;;;10.20;4.18;;;;;;;;;;5016134;28;20029;-52
2021/08/16 07:20:14;;;;;;;9.93;4.88;;;;;;;;;;5015829;28;20352;-53
2021/08/16 07:22:40;;;;;;;8.75;4.30;;;;;;;;;;5015671;28;20018;-53
2021/08/16 07:25:06;;;;;;;12.75;4.22;;;;;;;;;;5015834;28;20034;-52
2021/08/16 07:27:32;;;;;;;8.57;4.00;;;;;;;;;;5016031;28;20060;-52
2021/08/16 07:29:58;;;;;;;10.10;4.13;;;;;;;;;;5015487;28;20033;-52
2021/08/16 07:32:24;;;;;;;5.93;3.80;;;;;;;;;;5015237;28;20033;-52
2021/08/16 07:34:50;;;;;;;10.20;4.35;;;;;;;;;;5017959;28;20440;-52
2021/08/16 07:37:16;;;;;;;8.23;4.00;;;;;;;;;;5035387;28;20037;-52
2021/08/16 07:39:42;;;;;;;8.15;4.63;;;;;;;;;;5035389;28;20028;-52
2021/08/16 07:42:09;;;;;;;9.05;3.65;;;;;;;;;;5034387;28;20457;-52
2021/08/16 07:44:35;;;;;;;7.50;3.88;;;;;;;;;;5035090;28;20045;-52
2021/08/16 07:47:01;;;;;;;8.52;3.85;;;;;;;;;;5035362;28;20034;-52
2021/08/16 07:49:31;;;;;;;8.40;3.83;;;;;;;;;;5035058;28;20066;-52
2021/08/16 07:51:57;;;;;;;8.18;4.15;;;;;;;;;;5034316;28;20478;-52
2021/08/16 07:54:23;;;;;;;6.97;3.90;;;;;;;;;;5034845;28;20360;-53
2021/08/16 07:56:50;;;;;;;12.02;4.47;;;;;;;;;;5034783;28;20026;-52
2021/08/16 07:59:19;;;;;;;14.40;4.85;;;;;;;;;;5034594;28;20025;-53
2021/08/16 08:01:45;;;;;;;8.10;4.03;;;;;;;;;;5035073;28;20022;-52
2021/08/16 08:04:11;;;;;;;9.07;4.75;;;;;;;;;;5034859;28;20029;-52
2021/08/16 08:06:37;;;;;;;7.70;3.63;;;;;;;;;;5035520;28;20109;-52
2021/08/16 08:09:03;;;;;;;11.95;5.30;;;;;;;;;;5034039;28;20041;-52
2021/08/16 08:11:29;;;;;;;8.02;4.15;;;;;;;;;;5034271;28;20075;-53
2021/08/16 08:13:56;;;;;;;8.32;4.90;;;;;;;;;;5034628;28;20449;-52
2021/08/16 08:16:22;;;;;;;8.82;4.25;;;;;;;;;;5034650;28;20447;-52
2021/08/16 08:18:48;;;;;;;10.27;4.15;;;;;;;;;;5034917;28;20060;-52
2021/08/16 08:21:14;;;;;;;5.65;3.80;;;;;;;;;;5033771;28;20428;-52
2021/08/16 08:23:40;;;;;;;9.75;3.70;;;;;;;;;;5034387;28;20026;-52
2021/08/16 08:26:06;;;;;;;9.70;3.92;;;;;;;;;;5033836;28;20029;-53
2021/08/16 08:28:32;;;;;;;10.57;3.88;;;;;;;;;;5034333;28;20064;-53
2021/08/16 08:30:59;;;;;;;12.98;4.72;;;;;;;;;;5033599;28;20022;-53
2021/08/16 08:33:25;;;;;;;11.38;3.95;;;;;;;;;;5034166;28;20053;-52
2021/08/16 08:35:52;;;;;;;7.78;4.28;;;;;;;;;;5034099;28;20064;-53
2021/08/16 08:38:18;;;;;;;7.25;3.97;;;;;;;;;;5034427;28;20033;-53
2021/08/16 08:40:46;;;;;;;17.27;4.97;;;;;;;;;;5029666;28;20624;-52
2021/08/16 08:43:13;;;;;;;8.18;3.90;;;;;;;;;;5032649;28;20034;-53
2021/08/16 08:45:42;;;;;;;7.00;3.55;;;;;;;;;;5032673;28;20022;-53
2021/08/16 08:48:09;;;;;;;9.75;3.92;;;;;;;;;;5034299;28;20033;-53
2021/08/16 08:50:35;;;;;;;9.95;3.53;;;;;;;;;;5032870;28;20025;-53
2021/08/16 08:53:03;;;;;;;7.80;3.58;;;;;;;;;;5033698;28;20112;-53
2021/08/16 08:55:30;;;;;;;8.25;3.67;;;;;;;;;;5033627;28;20451;-52
2021/08/16 08:57:58;;;;;;;7.95;4.50;;;;;;;;;;5033976;28;20030;-52
2021/08/16 09:00:24;;;;;;;8.75;3.83;;;;;;;;;;5033347;28;20025;-53
2021/08/16 09:02:57;;;;;;;6.47;3.78;;;;;;;;;;5033453;28;20521;-52
2021/08/16 09:05:23;;;;;;;7.28;3.60;;;;;;;;;;5033441;28;20116;-53
2021/08/16 09:07:49;;;;;;;7.47;3.63;;;;;;;;;;5033430;28;20113;-53
2021/08/16 09:10:15;;;;;;;6.10;3.90;;;;;;;;;;5033526;28;20343;-53
2021/08/16 09:12:42;;;;;;;6.88;3.63;;;;;;;;;;5033527;28;20022;-53
2021/08/16 09:15:14;;;;;;;8.32;3.25;;;;;;;;;;5033458;28;20042;-53
2021/08/16 09:17:40;;;;;;;5.60;3.33;;;;;;;;;;5033582;28;20080;-53
2021/08/16 09:20:27;;;;;;;11.50;3.70;;;;;;;;;;5032848;28;20037;-52
2021/08/16 09:22:57;;;;;;;9.20;3.35;;;;;;;;;;5033519;28;20030;-53
2021/08/16 09:25:23;;;;;;;16.55;3.38;;;;;;;;;;5033315;28;20136;-53
2021/08/16 09:27:49;;;;;;;6.75;3.58;;;;;;;;;;5033209;28;20430;-52
2021/08/16 09:30:16;;;;;;;4.90;3.00;;;;;;;;;;5033017;28;20029;-53
2021/08/16 09:32:43;;;;;;;4.47;3.00;;;;;;;;;;5032696;28;20105;-53
2021/08/16 09:35:10;;;;;;;8.50;3.42;;;;;;;;;;5033233;28;20029;-53
2021/08/16 09:37:37;;;;;;;4.22;3.10;;;;;;;;;;5033527;28;20030;-53
2021/08/16 09:40:09;;;;;;;4.80;2.97;;;;;;;;;;5033027;28;20028;-53
2021/08/16 09:42:42;;;;;;;5.55;3.38;;;;;;;;;;5032402;28;20030;-52
2021/08/16 09:45:10;;;;;;;5.25;2.58;;;;;;;;;;5033044;28;20061;-53
2021/08/16 09:47:40;;;;;;;6.05;3.13;;;;;;;;;;5032910;28;20029;-53
2021/08/16 09:50:06;;;;;;;7.50;2.70;;;;;;;;;;5032747;28;20030;-53
2021/08/16 09:52:33;;;;;;;7.53;3.15;;;;;;;;;;5032904;28;20021;-53
2021/08/16 09:54:59;;;;;;;4.00;2.85;;;;;;;;;;5032968;28;20036;-53
2021/08/16 09:57:27;;;;;;;6.22;3.35;;;;;;;;;;5032820;28;20022;-53
2021/08/16 09:59:54;;;;;;;8.52;2.85;;;;;;;;;;5032318;28;20073;-53
2021/08/16 10:02:20;;;;;;;7.22;3.00;;;;;;;;;;5032710;28;20033;-52
2021/08/16 10:04:46;;;;;;;8.43;3.28;;;;;;;;;;5033035;28;20025;-53
2021/08/16 10:07:13;;;;;;;6.60;2.70;;;;;;;;;;5032692;28;20036;-53
2021/08/16 10:09:39;;;;;;;4.85;2.70;;;;;;;;;;5032076;28;20403;-53
2021/08/16 10:12:05;;;;;;;4.50;3.00;;;;;;;;;;5032320;28;20095;-53
2021/08/16 10:14:33;;;;;;;4.88;3.05;;;;;;;;;;5032679;28;20049;-53
2021/08/16 10:17:00;;;;;;;5.95;2.75;;;;;;;;;;5032417;28;20442;-53
2021/08/16 10:19:30;;;;;;;5.93;3.05;;;;;;;;;;5032628;28;20018;-53
2021/08/16 10:21:59;;;;;;;6.82;2.92;;;;;;;;;;5032209;28;20463;-53
2021/08/16 10:24:29;;;;;;;6.70;2.88;;;;;;;;;;5032388;28;20152;-53
2021/08/16 10:26:56;;;;;;;12.43;3.35;;;;;;;;;;5032290;28;20025;-53
2021/08/16 10:29:22;;;;;;;5.97;2.47;;;;;;;;;;5032461;28;20072;-53
2021/08/16 10:31:52;;;;;;;3.50;2.35;;;;;;;;;;5032030;28;20388;-53
2021/08/16 10:34:35;;;;;;;5.28;2.60;;;;;;;;;;5032877;28;20036;-53
2021/08/16 10:37:03;;;;;;;4.68;2.63;;;;;;;;;;5032766;28;20316;-53
2021/08/16 10:39:33;;;;;;;7.03;2.80;;;;;;;;;;5032322;28;20038;-53
2021/08/16 10:42:25;;;;;;;4.65;2.85;;;;;;;;;;5032123;28;20025;-53
2021/08/16 10:44:53;;;;;;;5.75;3.10;;;;;;;;;;5031988;28;20072;-53
2021/08/16 10:47:27;;;;;;;6.10;2.42;;;;;;;;;;5032320;28;20030;-53
2021/08/16 10:50:10;;;;;;;4.15;2.35;;;;;;;;;;5034016;28;20057;-53
2021/08/16 10:52:37;;;;;;;6.43;2.38;;;;;;;;;;5035774;28;20025;-53
2021/08/16 10:55:09;;;;;;;5.95;2.58;;;;;;;;;;5036449;28;20080;-53
2021/08/16 10:57:36;;;;;;;4.22;2.65;;;;;;;;;;5036283;28;20032;-53
2021/08/16 11:00:02;;;;;;;5.82;2.50;;;;;;;;;;5035712;28;20358;-53
2021/08/16 11:02:28;;;;;;;4.93;2.55;;;;;;;;;;5035852;28;20036;-52
2021/08/16 11:04:54;;;;;;;6.65;2.42;;;;;;;;;;5036106;28;20099;-53
2021/08/16 11:07:22;;;;;;;7.05;3.22;;;;;;;;;;5036197;28;20431;-53
2021/08/16 11:09:55;;;;;;;7.22;2.78;;;;;;;;;;5035606;28;20049;-53
2021/08/16 11:12:31;;;;;;;3.95;2.53;;;;;;;;;;5035805;28;20025;-53
2021/08/16 11:14:57;;;;;;;6.13;2.60;;;;;;;;;;5035762;28;20039;-53
2021/08/16 11:17:27;;;;;;;3.65;2.72;;;;;;;;;;5035942;28;20022;-53
2021/08/16 11:19:57;;;;;;;8.52;3.13;;;;;;;;;;5034999;28;20462;-53
2021/08/16 11:22:23;;;;;;;8.32;2.88;;;;;;;;;;5035549;28;20030;-53
2021/08/16 11:24:49;;;;;;;5.72;2.75;;;;;;;;;;5035517;28;20034;-53
2021/08/16 11:27:23;;;;;;;6.90;2.80;;;;;;;;;;5035130;28;20025;-53
2021/08/16 11:29:56;;;;;;;5.22;3.00;;;;;;;;;;5035095;28;20041;-53
2021/08/16 11:32:23;;;;;;;7.20;2.83;;;;;;;;;;5035167;28;20018;-53
2021/08/16 11:34:59;;;;;;;7.30;2.63;;;;;;;;;;5035232;28;20509;-53
2021/08/16 11:37:27;;;;;;;6.72;3.28;;;;;;;;;;5035771;28;20108;-53
2021/08/16 11:39:53;;;;;;;3.85;2.47;;;;;;;;;;5034470;28;20036;-53
2021/08/16 11:42:20;;;;;;;11.52;3.10;;;;;;;;;;5034971;28;20080;-53
2021/08/16 11:45:00;;;;;;;6.40;3.15;;;;;;;;;;5029482;28;20421;-54
2021/08/16 11:47:30;;;;;;;6.55;3.00;;;;;;;;;;5032347;28;20044;-53
2021/08/16 11:50:00;;;;;;;9.40;2.85;;;;;;;;;;5034443;28;20037;-53
2021/08/16 11:52:26;;;;;;;8.18;3.83;;;;;;;;;;5033768;28;20446;-53
2021/08/16 11:54:52;;;;;;;4.22;2.65;;;;;;;;;;5035293;28;20026;-53
2021/08/16 11:57:21;;;;;;;5.63;2.92;;;;;;;;;;5035148;28;20025;-53
2021/08/16 11:59:50;;;;;;;5.57;2.88;;;;;;;;;;5034306;28;20443;-53
2021/08/16 12:02:16;;;;;;;5.93;3.30;;;;;;;;;;5033301;28;20022;-53
2021/08/16 12:04:42;;;;;;;4.85;2.65;;;;;;;;;;5034038;28;20463;-53
2021/08/16 12:07:08;;;;;;;4.75;3.00;;;;;;;;;;5034369;28;20048;-53
2021/08/16 12:09:35;;;;;;;4.82;2.45;;;;;;;;;;5034464;28;20037;-54
2021/08/16 12:12:02;;;;;;;8.68;3.28;;;;;;;;;;5034372;28;20414;-53
2021/08/16 12:14:35;;;;;;;4.63;2.50;;;;;;;;;;5035035;28;20040;-53
2021/08/16 12:17:01;;;;;;;6.07;2.80;;;;;;;;;;5034624;28;20072;-53
2021/08/16 12:19:27;;;;;;;10.38;2.92;;;;;;;;;;5034401;28;20467;-53
2021/08/16 12:22:06;;;;;;;2.95;2.20;;;;;;;;;;5034514;28;20103;-53
2021/08/16 12:24:32;;;;;;;7.97;3.15;;;;;;;;;;5034538;28;20061;-53
2021/08/16 12:27:00;;;;;;;6.63;3.33;;;;;;;;;;5034480;28;20356;-53
2021/08/16 12:29:28;;;;;;;6.07;2.72;;;;;;;;;;5034272;28;20120;-53
2021/08/16 12:31:54;;;;;;;5.65;2.80;;;;;;;;;;5033828;28;20026;-53
2021/08/16 12:34:20;;;;;;;5.18;2.13;;;;;;;;;;5034386;28;20112;-53
2021/08/16 12:36:54;;;;;;;7.03;2.45;;;;;;;;;;5016346;28;20050;-53
2021/08/16 12:39:21;;;;;;;4.60;2.15;;;;;;;;;;5014058;28;20030;-53
2021/08/16 12:41:47;;;;;;;5.20;2.65;;;;;;;;;;5015901;28;20022;-53
2021/08/16 12:44:20;;;;;;;3.30;2.20;;;;;;;;;;5033657;28;20171;-53
2021/08/16 12:46:57;;;;;;;4.25;2.60;;;;;;;;;;5034376;28;20021;-53
2021/08/16 12:49:23;;;;;;;5.63;2.65;;;;;;;;;;5017640;28;20136;-53
2021/08/16 12:51:49;;;;;;;4.15;2.33;;;;;;;;;;5028644;28;20025;-53
2021/08/16 12:54:15;;;;;;;5.00;2.45;;;;;;;;;;5032341;28;20048;-53
2021/08/16 12:56:41;;;;;;;4.25;2.20;;;;;;;;;;5033422;28;20024;-53
2021/08/16 12:59:07;;;;;;;3.03;2.28;;;;;;;;;;5033442;28;20103;-53
2021/08/16 13:01:33;;;;;;;2.90;2.22;;;;;;;;;;5033589;28;20029;-53
2021/08/16 13:03:59;;;;;;;4.13;2.17;;;;;;;;;;5033236;28;20463;-53
2021/08/16 13:06:25;;;;;;;9.13;2.67;;;;;;;;;;5033674;28;20037;-53
2021/08/16 13:08:51;;;;;;;5.47;2.92;;;;;;;;;;5033705;28;20033;-53
2021/08/16 13:11:17;;;;;;;6.25;3.30;;;;;;;;;;5032803;28;20029;-53
2021/08/16 13:13:43;;;;;;;5.97;2.83;;;;;;;;;;5033560;28;20035;-53
2021/08/16 13:16:09;;;;;;;4.30;2.63;;;;;;;;;;5033660;28;20029;-53
2021/08/16 13:18:36;;;;;;;5.53;2.75;;;;;;;;;;5033470;28;20029;-53
2021/08/16 13:21:03;;;;;;;6.07;2.40;;;;;;;;;;5032364;28;20022;-53
2021/08/16 13:23:29;;;;;;;10.65;3.10;;;;;;;;;;5033454;28;20108;-53
2021/08/16 13:25:55;;;;;;;5.60;3.10;;;;;;;;;;5033323;28;20080;-53
2021/08/16 13:28:21;;;;;;;6.88;3.17;;;;;;;;;;5033535;28;20041;-54
2021/08/16 13:30:47;;;;;;;6.75;3.20;;;;;;;;;;5032572;28;20018;-53
2021/08/16 13:33:14;;;;;;;4.82;2.75;;;;;;;;;;5033335;28;20087;-53
2021/08/16 13:35:40;;;;;;;6.32;3.15;;;;;;;;;;5032869;28;20443;-53
2021/08/16 13:38:06;;;;;;;7.82;3.00;;;;;;;;;;5033280;28;20039;-53
2021/08/16 13:40:32;;;;;;;4.32;2.50;;;;;;;;;;5032475;28;20029;-53
2021/08/16 13:42:58;;;;;;;6.43;2.88;;;;;;;;;;5033226;28;20025;-53
2021/08/16 13:45:24;;;;;;;4.47;2.63;;;;;;;;;;5031705;28;20363;-53
2021/08/16 13:47:51;;;;;;;8.10;2.70;;;;;;;;;;5033086;28;20036;-54
2021/08/16 13:50:17;;;;;;;7.35;2.55;;;;;;;;;;5032929;28;20135;-53
2021/08/16 13:52:43;;;;;;;5.07;2.80;;;;;;;;;;5031810;28;20029;-53
2021/08/16 13:55:09;;;;;;;5.20;2.60;;;;;;;;;;5032573;28;20080;-53
2021/08/16 13:57:35;;;;;;;6.57;3.10;;;;;;;;;;5028329;28;20108;-53
2021/08/16 14:00:02;;;;;;;6.78;3.00;;;;;;;;;;5031941;28;20466;-53
2021/08/16 14:02:28;;;;;;;8.13;3.25;;;;;;;;;;5032809;28;20091;-53
2021/08/16 14:04:54;;;;;;;8.75;3.20;;;;;;;;;;5031639;28;20447;-51
2021/08/16 14:07:20;;;;;;;7.47;2.67;;;;;;;;;;5032414;28;20348;-51
2021/08/16 14:09:46;;;;;;;6.43;2.80;;;;;;;;;;5031384;28;20116;-51
2021/08/16 14:12:12;;;;;;;5.60;2.78;;;;;;;;;;5032362;28;20025;-52
2021/08/16 14:14:38;;;;;;;8.95;2.80;;;;;;;;;;5032877;28;20485;-51
2021/08/16 14:17:04;;;;;;;5.07;2.95;;;;;;;;;;5032899;28;20025;-51
2021/08/16 14:19:30;;;;;;;8.77;3.00;;;;;;;;;;5031833;28;20459;-51
2021/08/16 14:21:57;;;;;;;5.85;3.17;;;;;;;;;;5032159;28;20040;-51
2021/08/16 14:24:23;;;;;;;7.63;2.60;;;;;;;;;;5033517;28;20038;-51
2021/08/16 14:26:48;;;;;;;6.38;3.13;;;;;;;;;;5036559;28;20470;-51
2021/08/16 14:29:15;;;;;;;9.02;2.90;;;;;;;;;;5035603;28;20041;-51
2021/08/16 14:31:41;;;;;;;11.40;2.65;;;;;;;;;;5035569;28;20385;-52
2021/08/16 14:34:09;;;;;;;6.93;2.42;;;;;;;;;;5036530;28;20026;-51
2021/08/16 14:36:35;;;;;;;11.23;3.10;;;;;;;;;;5036187;28;20351;-51